Aérodrome :
LOGIN :

S'inscrire | Disclaimer

   EN    FR    IT 

 










Légende :    VFR   VFR Marginal   IFR   IFR Intensif   IFR Très Intensif
Visi : 
Plafond : 
>= 8 km
>= 3000ft
5 à 8 km
1000 à 3000 ft
1500m à 5 km
500 à 1000 ft
800 à 1500m
200 à 500 ft
< 800m
< 200 ft
Symboles :   Orages  Brouillard  Fortes neiges  Fortes précipitations  Vent > 20 kt
SIGMETs :   Divers  Orages  Givrage  Turbulence  Onde Orograph.  Cendres Volcan.






- Altitude de l'aérodrome : 538 ft
- Code IATA : TNF


LFPN - Toussus Le Noble

DERNIER METAR :
  • 171230Z AUTO 32012KT 9999 FEW020 SCT028 BKN033 07/04 Q1024 NOSIG

METARs EXPIRÉS :
  • 171200Z AUTO 31011KT 9999 BKN022 07/04 Q1024 TEMPO 4000 -SHRA BKN012TCU
  • 171130Z AUTO 30009KT 9999 BKN021 BKN026 OVC031 07/04 Q1024 TEMPO 4000 -SHRA BKN012TCU
  • 171100Z AUTO 32009KT 9999 OVC021 06/04 Q1024 TEMPO 4000 -SHRA BKN012TCU
  • 171030Z AUTO 34006KT 9999 BKN020 BKN028 OVC042 05/03 Q1024 TEMPO 4000 -SHRA BKN012TCU
  • 171000Z AUTO 32009KT 9999 BKN021/// BKN026/// OVC038/// ///TCU 05/03 Q1023 TEMPO 4000 -SHRA BKN012TCU

TAF TAF LFPN
Valide du 17 à 12h jusqu'au 17 à 21h UTC


171100Z 1712/1721 29008KT 9999 BKN020
ATIS : +33 1 39 56 54 70



MET'MAP, la Météo Aéronautique d'un coup d'oeil ! - Copyright ORBIFLY Décembre 2007 - Disclaimer

ORBIFLY MET'MAP TEAM :

Programmation & Développement : Alexandra Zaïnal
Sur une idée originale de : Baudouin d'Aumeries
Assistance à la programmation : Marc-Olivier Méhu
Soutien technique & logistique : Manuel Goepfert

Contact : metmap@orbifly.com




SOURCES & CREDITS :

   NOAA